Time;durP1;ratioP1;P1;durP2;ratioP2;P2;SDS_P1;SDS_P2;PMS_P1;PMS_P2;Temp;Humidity;BMP_temperature;BMP_pressure;BME280_temperature;BME280_humidity;BME280_pressure;Samples;Min_cycle;Max_cycle;Signal;HPM_P1;HPM_P2
2023/09/25 00:02:23;;;;;;;2.23;1.00;;;13.70;99.90;;;;;;5033473;28;20026;-76
2023/09/25 00:04:49;;;;;;;2.87;1.10;;;13.70;99.90;;;;;;5051734;28;20048;-75
2023/09/25 00:07:19;;;;;;;3.23;1.13;;;13.60;99.90;;;;;;5051877;28;20093;-75
2023/09/25 00:09:55;;;;;;;1.67;1.03;;;13.50;99.90;;;;;;5031271;28;20036;-76
2023/09/25 00:12:23;;;;;;;1.97;0.90;;;13.60;99.90;;;;;;5049582;28;20021;-76
2023/09/25 00:14:49;;;;;;;2.30;0.90;;;13.60;99.90;;;;;;5034700;28;20053;-75
2023/09/25 00:17:15;;;;;;;3.00;1.10;;;13.40;99.90;;;;;;5035006;28;20041;-76
2023/09/25 00:19:42;;;;;;;2.33;1.23;;;13.50;99.90;;;;;;5038652;28;20037;-74
2023/09/25 00:22:13;;;;;;;3.50;1.00;;;13.60;99.90;;;;;;5035354;28;20013;-75
2023/09/25 00:24:38;;;;;;;6.63;1.20;;;13.50;99.90;;;;;;5035104;28;20105;-75
2023/09/25 00:27:06;;;;;;;4.07;1.10;;;13.50;99.90;;;;;;5032749;28;20021;-74
2023/09/25 00:29:32;;;;;;;4.93;1.13;;;13.50;99.90;;;;;;5033505;28;20038;-75
2023/09/25 00:32:00;;;;;;;2.87;0.93;;;13.50;99.90;;;;;;5032656;28;20032;-75
2023/09/25 00:34:28;;;;;;;3.33;1.23;;;13.50;99.90;;;;;;5050544;28;20021;-75
2023/09/25 00:36:56;;;;;;;4.43;1.27;;;13.50;99.90;;;;;;5035627;28;20041;-75
2023/09/25 00:39:22;;;;;;;5.43;1.57;;;13.40;99.90;;;;;;5035576;28;20064;-75
2023/09/25 00:41:48;;;;;;;2.07;0.80;;;13.40;99.90;;;;;;5036660;28;20039;-75
2023/09/25 00:44:16;;;;;;;3.03;1.13;;;13.40;99.90;;;;;;5033298;28;20017;-75
2023/09/25 00:46:46;;;;;;;5.13;1.00;;;13.30;99.90;;;;;;5033533;28;20009;-74
2023/09/25 00:49:12;;;;;;;2.17;1.10;;;13.30;99.90;;;;;;5034810;28;20050;-75
2023/09/25 00:51:44;;;;;;;3.00;0.87;;;13.30;99.90;;;;;;5038254;28;20453;-75
2023/09/25 00:54:17;;;;;;;;;;;13.30;99.90;;;;;;5031483;28;20037;-76
2023/09/25 00:56:43;;;;;;;1.83;1.00;;;13.30;99.90;;;;;;5032376;28;19909;-75
2023/09/25 00:59:12;;;;;;;1.93;1.10;;;13.20;99.90;;;;;;5029742;28;20052;-76
2023/09/25 01:01:43;;;;;;;1.33;0.80;;;13.20;99.90;;;;;;5051034;28;20012;-75
2023/09/25 01:04:14;;;;;;;3.20;1.10;;;13.20;99.90;;;;;;5032330;28;20028;-75
2023/09/25 01:06:45;;;;;;;1.53;1.00;;;13.10;99.90;;;;;;5032037;28;20068;-75
2023/09/25 01:09:14;;;;;;;3.30;0.97;;;13.20;99.90;;;;;;5048753;28;20018;-75
2023/09/25 01:11:42;;;;;;;4.73;1.17;;;13.20;99.90;;;;;;5050907;28;20048;-75
2023/09/25 01:14:10;;;;;;;2.13;1.10;;;13.20;99.90;;;;;;5049712;28;20041;-76
2023/09/25 01:16:38;;;;;;;3.70;1.30;;;13.20;99.90;;;;;;5036269;28;20005;-75
2023/09/25 01:19:06;;;;;;;4.27;1.20;;;13.20;99.90;;;;;;5029573;28;20033;-76
2023/09/25 01:21:39;;;;;;;4.43;1.03;;;13.20;99.90;;;;;;5030022;28;20009;-76
2023/09/25 01:24:05;;;;;;;2.63;1.17;;;13.20;99.90;;;;;;5033895;28;20056;-75
2023/09/25 01:26:34;;;;;;;4.13;1.20;;;13.10;99.90;;;;;;5033057;28;20075;-75
2023/09/25 01:29:02;;;;;;;2.20;1.00;;;13.10;99.90;;;;;;5030740;28;20098;-75
2023/09/25 01:31:28;;;;;;;4.80;1.13;;;13.10;99.90;;;;;;5033912;28;20057;-75
2023/09/25 01:33:54;;;;;;;5.17;1.17;;;13.10;99.90;;;;;;5049900;28;20014;-75
2023/09/25 01:36:22;;;;;;;3.13;0.93;;;13.00;99.90;;;;;;5049799;28;20075;-75
2023/09/25 01:38:48;;;;;;;4.03;0.90;;;13.00;99.90;;;;;;5029495;28;20045;-75
2023/09/25 01:41:42;;;;;;;2.00;1.00;;;13.00;99.90;;;;;;5034688;28;20061;-76
2023/09/25 01:44:10;;;;;;;3.73;1.00;;;12.90;99.90;;;;;;5032782;28;20022;-75
2023/09/25 01:46:36;;;;;;;2.67;1.20;;;12.90;99.90;;;;;;5033918;28;20044;-75
2023/09/25 01:49:01;;;;;;;2.77;1.30;;;12.90;99.90;;;;;;5034513;28;20025;-75
2023/09/25 01:51:29;;;;;;;2.20;1.07;;;12.90;99.90;;;;;;5029408;28;20021;-75
2023/09/25 01:53:55;;;;;;;3.37;1.33;;;12.90;99.90;;;;;;5031548;28;20151;-75
2023/09/25 01:56:21;;;;;;;3.20;1.50;;;12.90;99.90;;;;;;5031696;28;20017;-75
2023/09/25 01:58:48;;;;;;;6.80;1.40;;;12.90;99.90;;;;;;5047525;28;20056;-74
2023/09/25 02:01:14;;;;;;;2.10;1.20;;;12.90;99.90;;;;;;5033815;28;20053;-74
2023/09/25 02:04:05;;;;;;;1.87;1.13;;;12.80;99.90;;;;;;5031296;28;20048;-74
2023/09/25 02:06:33;;;;;;;2.13;1.20;;;12.80;99.90;;;;;;4987149;28;20043;-75
2023/09/25 02:09:02;;;;;;;3.13;1.00;;;12.80;99.90;;;;;;4987261;28;20031;-76
2023/09/25 02:11:32;;;;;;;2.40;1.20;;;12.80;99.90;;;;;;4972414;28;20055;-75
2023/09/25 02:13:58;;;;;;;5.13;1.03;;;12.80;99.90;;;;;;4972353;28;20023;-75
2023/09/25 02:16:29;;;;;;;3.97;1.53;;;12.70;99.90;;;;;;4957820;28;20030;-74
2023/09/25 02:19:01;;;;;;;4.33;1.27;;;12.70;99.90;;;;;;4984500;28;20071;-75
2023/09/25 02:21:27;;;;;;;;;;;12.80;99.90;;;;;;4974700;28;20033;-75
2023/09/25 02:23:55;;;;;;;3.10;1.33;;;12.70;99.90;;;;;;4986795;28;19933;-76
2023/09/25 02:26:22;;;;;;;7.13;1.50;;;12.70;99.90;;;;;;4987991;28;20038;-75
2023/09/25 02:28:48;;;;;;;1.77;1.30;;;12.70;99.90;;;;;;4988447;28;20593;-75
2023/09/25 02:31:17;;;;;;;2.60;1.10;;;12.70;99.90;;;;;;5015459;28;20030;-74
2023/09/25 02:33:52;;;;;;;20.80;2.07;;;12.60;99.90;;;;;;5031895;28;20010;-76
2023/09/25 02:36:24;;;;;;;1.30;1.07;;;12.60;99.90;;;;;;5032505;28;20021;-74
2023/09/25 02:39:31;;;;;;;4.22;1.40;;;12.60;99.90;;;;;;5029555;28;20033;-76
2023/09/25 02:41:59;;;;;;;1.97;1.13;;;12.50;99.90;;;;;;5032028;28;20057;-75
2023/09/25 02:44:30;;;;;;;2.37;0.90;;;12.50;99.90;;;;;;5033319;28;20025;-75
2023/09/25 02:46:57;;;;;;;1.70;0.87;;;12.40;99.90;;;;;;5037175;28;20018;-75
2023/09/25 02:49:28;;;;;;;6.03;1.47;;;12.40;99.90;;;;;;5033243;28;20025;-75
2023/09/25 02:52:00;;;;;;;4.07;1.57;;;12.40;99.90;;;;;;5036650;28;20016;-75
2023/09/25 02:54:26;;;;;;;4.28;1.55;;;12.40;99.90;;;;;;5052184;28;20082;-75
2023/09/25 02:56:51;;;;;;;3.47;1.33;;;12.40;99.90;;;;;;5036507;28;20030;-75
2023/09/25 02:59:20;;;;;;;1.90;1.00;;;12.40;99.90;;;;;;5053381;28;20040;-75
2023/09/25 03:01:45;;;;;;;6.03;1.10;;;12.30;99.90;;;;;;5036856;28;20089;-75
2023/09/25 03:04:26;;;;;;;3.63;1.23;;;12.20;99.90;;;;;;4993928;28;20039;-75
2023/09/25 03:06:56;;;;;;;3.83;1.10;;;12.30;99.90;;;;;;4977592;28;20021;-75
2023/09/25 03:09:27;;;;;;;2.70;1.10;;;12.20;99.90;;;;;;4993509;28;20031;-75
2023/09/25 03:11:52;;;;;;;4.57;1.30;;;12.20;99.90;;;;;;4994287;28;20102;-75
2023/09/25 03:14:31;;;;;;;2.47;1.10;;;12.20;99.90;;;;;;4993271;28;20094;-76
2023/09/25 03:16:56;;;;;;;2.00;1.00;;;12.20;99.90;;;;;;4993592;28;20026;-75
2023/09/25 03:19:24;;;;;;;4.63;1.00;;;12.10;99.90;;;;;;4993201;28;20051;-75
2023/09/25 03:21:52;;;;;;;2.30;1.00;;;12.10;99.90;;;;;;4993701;28;20043;-75
2023/09/25 03:24:18;;;;;;;2.57;1.20;;;11.90;99.90;;;;;;4993716;28;20019;-75
2023/09/25 03:26:44;;;;;;;2.63;1.20;;;12.10;99.90;;;;;;4993420;28;20051;-75
2023/09/25 03:29:12;;;;;;;3.03;1.23;;;11.90;99.90;;;;;;4977419;28;20074;-75
2023/09/25 03:31:37;;;;;;;5.10;2.00;;;11.90;99.90;;;;;;4994068;28;20057;-75
2023/09/25 03:34:04;;;;;;;5.77;1.20;;;11.90;99.90;;;;;;4997044;28;20043;-75
2023/09/25 03:36:30;;;;;;;2.83;1.33;;;11.90;99.90;;;;;;5034850;28;20021;-76
2023/09/25 03:38:58;;;;;;;1.80;1.20;;;11.70;99.90;;;;;;5034046;28;20093;-74
2023/09/25 03:41:24;;;;;;;3.43;1.03;;;11.90;99.90;;;;;;5030835;28;20048;-75
2023/09/25 03:43:52;;;;;;;4.30;1.20;;;11.80;99.90;;;;;;5036904;28;20064;-75
2023/09/25 03:46:25;;;;;;;2.97;1.60;;;11.60;99.90;;;;;;5050286;28;20052;-75
2023/09/25 03:48:54;;;;;;;4.67;1.20;;;11.70;99.90;;;;;;5051500;28;20112;-76
2023/09/25 03:51:21;;;;;;;3.90;1.03;;;11.50;99.90;;;;;;5037097;28;20033;-75
2023/09/25 03:53:49;;;;;;;1.97;0.90;;;11.60;99.90;;;;;;5037454;28;20024;-75
2023/09/25 03:56:17;;;;;;;2.20;1.13;;;11.60;99.90;;;;;;5034741;28;20036;-74
2023/09/25 03:58:46;;;;;;;3.10;1.30;;;11.50;99.90;;;;;;5033147;28;20105;-74
2023/09/25 04:01:12;;;;;;;3.60;1.33;;;11.60;99.90;;;;;;5036101;28;20025;-74
2023/09/25 04:03:40;;;;;;;1.57;0.97;;;11.60;99.90;;;;;;5051211;28;20013;-74
2023/09/25 04:06:10;;;;;;;3.03;1.37;;;11.60;99.90;;;;;;5034144;28;20018;-75
2023/09/25 04:08:36;;;;;;;2.87;0.90;;;11.60;99.90;;;;;;5031092;28;20033;-76
2023/09/25 04:11:14;;;;;;;5.13;1.50;;;11.50;99.90;;;;;;5032502;28;20018;-75
2023/09/25 04:13:42;;;;;;;4.20;1.80;;;11.40;99.90;;;;;;5033499;28;20045;-75
2023/09/25 04:16:12;;;;;;;2.97;1.27;;;11.40;99.90;;;;;;5033373;28;20017;-75
2023/09/25 04:18:45;;;;;;;3.13;1.90;;;11.50;99.90;;;;;;5036019;28;20061;-75
2023/09/25 04:21:17;;;;;;;3.70;1.10;;;11.40;99.90;;;;;;5034323;28;20021;-74
2023/09/25 04:23:45;;;;;;;4.85;1.40;;;11.30;99.90;;;;;;5051328;28;20037;-75
2023/09/25 04:26:13;;;;;;;2.53;1.20;;;11.40;99.90;;;;;;5034643;28;20097;-74
2023/09/25 04:28:40;;;;;;;3.50;1.77;;;11.40;99.90;;;;;;5033695;28;20033;-75
2023/09/25 04:31:07;;;;;;;7.30;1.27;;;11.30;99.90;;;;;;5035350;28;20038;-76
2023/09/25 04:33:38;;;;;;;6.47;1.20;;;11.30;99.90;;;;;;5033736;28;20033;-74
2023/09/25 04:36:04;;;;;;;5.50;1.30;;;11.30;99.90;;;;;;5052445;28;20044;-75
2023/09/25 04:38:35;;;;;;;2.47;1.20;;;11.40;99.90;;;;;;5052422;28;20049;-75
2023/09/25 04:41:00;;;;;;;3.17;1.27;;;11.30;99.90;;;;;;5035881;28;20040;-76
2023/09/25 04:43:26;;;;;;;4.07;1.77;;;11.30;99.90;;;;;;5038576;28;20033;-74
2023/09/25 04:45:58;;;;;;;3.50;1.60;;;11.20;99.90;;;;;;5032565;28;20033;-75
2023/09/25 04:48:26;;;;;;;3.27;1.50;;;11.30;99.90;;;;;;5033944;28;20017;-74
2023/09/25 04:50:54;;;;;;;5.20;1.77;;;11.30;99.90;;;;;;5033324;28;20041;-75
2023/09/25 04:53:37;;;;;;;4.13;1.57;;;11.30;99.90;;;;;;5035283;28;20029;-74
2023/09/25 04:56:06;;;;;;;3.67;1.57;;;11.30;99.90;;;;;;5034475;28;20032;-74
2023/09/25 04:58:32;;;;;;;7.77;2.27;;;11.30;99.90;;;;;;5032652;28;20045;-77
2023/09/25 05:01:01;;;;;;;2.53;1.20;;;11.30;99.90;;;;;;5033751;28;20014;-75
2023/09/25 05:03:26;;;;;;;1.60;1.13;;;11.30;99.90;;;;;;5032869;28;20032;-75
2023/09/25 05:05:55;;;;;;;4.77;1.57;;;11.30;99.90;;;;;;5051631;28;20013;-75
2023/09/25 05:08:28;;;;;;;3.17;1.37;;;11.20;99.90;;;;;;5033621;28;20037;-75
2023/09/25 05:11:04;;;;;;;3.73;1.47;;;11.30;99.90;;;;;;5034513;28;20013;-75
2023/09/25 05:13:37;;;;;;;4.33;1.30;;;11.30;99.90;;;;;;5033521;28;20025;-76
2023/09/25 05:16:05;;;;;;;4.70;1.43;;;11.40;99.90;;;;;;5030674;28;20045;-75
2023/09/25 05:18:43;;;;;;;3.67;1.73;;;11.30;99.90;;;;;;5033135;28;20021;-75
2023/09/25 05:21:16;;;;;;;3.73;1.37;;;11.40;99.90;;;;;;5034989;28;20026;-76
2023/09/25 05:23:42;;;;;;;4.73;1.40;;;11.40;99.90;;;;;;5050555;28;20025;-75
2023/09/25 05:26:10;;;;;;;5.77;1.33;;;11.40;99.90;;;;;;5030524;28;20020;-75
2023/09/25 05:28:40;;;;;;;6.17;1.70;;;11.40;99.90;;;;;;5050574;28;20085;-76
2023/09/25 05:31:06;;;;;;;2.77;2.20;;;11.40;99.90;;;;;;5030129;28;20018;-76
2023/09/25 05:33:39;;;;;;;6.07;1.00;;;11.40;99.90;;;;;;5033730;28;20037;-75
2023/09/25 05:36:07;;;;;;;3.37;1.50;;;11.30;99.90;;;;;;5049366;28;20018;-75
2023/09/25 05:38:36;;;;;;;6.90;2.10;;;11.50;99.90;;;;;;5031570;28;20040;-75
2023/09/25 05:41:04;;;;;;;5.17;2.40;;;11.50;99.90;;;;;;5034674;28;20026;-75
2023/09/25 05:43:39;;;;;;;3.60;1.57;;;11.50;99.90;;;;;;5034264;28;20029;-76
2023/09/25 05:46:07;;;;;;;6.53;2.60;;;11.50;99.90;;;;;;5027121;28;20037;-75
2023/09/25 05:48:43;;;;;;;6.30;2.40;;;11.50;99.90;;;;;;5031400;28;20097;-75
2023/09/25 05:51:08;;;;;;;3.87;1.97;;;11.50;99.90;;;;;;5050991;28;20022;-76
2023/09/25 05:53:36;;;;;;;4.17;1.93;;;11.60;99.90;;;;;;5030992;28;20056;-76
2023/09/25 05:56:03;;;;;;;5.20;2.10;;;11.60;99.90;;;;;;5031115;28;20049;-76
2023/09/25 05:58:32;;;;;;;4.63;1.63;;;11.60;99.90;;;;;;5030704;28;20356;-78
2023/09/25 06:01:03;;;;;;;4.20;2.20;;;11.60;99.90;;;;;;5031842;28;20026;-75
2023/09/25 06:03:38;;;;;;;4.03;1.87;;;11.80;99.90;;;;;;5034026;28;20032;-75
2023/09/25 06:06:05;;;;;;;5.20;2.03;;;11.80;99.90;;;;;;5033776;28;20014;-74
2023/09/25 06:08:43;;;;;;;6.10;2.67;;;11.80;99.90;;;;;;5030270;28;20121;-74
2023/09/25 06:11:14;;;;;;;4.93;2.17;;;11.80;99.90;;;;;;5032036;28;20095;-74
2023/09/25 06:13:42;;;;;;;4.27;1.93;;;11.90;99.90;;;;;;5033338;28;20026;-74
2023/09/25 06:16:14;;;;;;;5.43;1.80;;;12.00;99.90;;;;;;5052108;28;20024;-75
2023/09/25 06:18:52;;;;;;;4.10;2.30;;;12.00;99.90;;;;;;5036359;28;20037;-74
2023/09/25 06:21:27;;;;;;;5.87;2.07;;;12.00;99.90;;;;;;5052502;28;20036;-74
2023/09/25 06:23:55;;;;;;;5.03;1.60;;;12.00;99.90;;;;;;5051926;28;20017;-75
2023/09/25 06:26:41;;;;;;;4.43;1.87;;;12.20;99.90;;;;;;5053862;28;20035;-75
2023/09/25 06:29:17;;;;;;;11.07;3.60;;;12.10;99.90;;;;;;5032346;28;20025;-75
2023/09/25 06:31:43;;;;;;;6.07;1.90;;;12.20;99.90;;;;;;5037163;23;20030;-74
2023/09/25 06:34:16;;;;;;;4.87;2.40;;;12.20;99.90;;;;;;5021988;28;20002;-74
2023/09/25 06:36:48;;;;;;;9.87;2.33;;;12.30;99.90;;;;;;5034459;28;20018;-74
2023/09/25 06:39:13;;;;;;;6.43;3.60;;;12.40;99.90;;;;;;5034306;28;20044;-75
2023/09/25 06:41:41;;;;;;;6.83;2.90;;;12.40;99.90;;;;;;5035140;28;20034;-75
2023/09/25 06:44:07;;;;;;;4.27;2.50;;;12.40;99.90;;;;;;5033684;28;20033;-75
2023/09/25 06:46:41;;;;;;;3.70;2.13;;;12.50;99.90;;;;;;5016657;28;20046;-75
2023/09/25 06:49:22;;;;;;;;;;;;;;;;;;;;;
2023/09/25 06:51:50;;;;;;;4.13;1.90;;;12.50;99.90;;;;;;5035174;28;20029;-76
2023/09/25 06:54:20;;;;;;;3.77;1.80;;;12.70;99.90;;;;;;5016176;28;20045;-75
2023/09/25 06:57:08;;;;;;;3.27;1.57;;;12.70;99.90;;;;;;5035201;28;20042;-76
2023/09/25 06:59:36;;;;;;;6.33;1.80;;;12.90;99.90;;;;;;5034496;28;20040;-76
2023/09/25 07:02:08;;;;;;;5.47;1.70;;;12.80;99.90;;;;;;5034331;28;20045;-75
2023/09/25 07:04:36;;;;;;;7.17;1.93;;;12.90;99.90;;;;;;5034016;28;20026;-75
2023/09/25 07:07:08;;;;;;;5.27;2.13;;;12.90;99.90;;;;;;5021953;28;20037;-76
2023/09/25 07:09:33;;;;;;;3.87;1.87;;;13.10;99.90;;;;;;5018207;28;20082;-75
2023/09/25 07:12:17;;;;;;;8.23;1.90;;;13.10;99.90;;;;;;5033798;28;20429;-76
2023/09/25 07:14:55;;;;;;;7.13;2.60;;;13.20;99.90;;;;;;5035147;28;20017;-76
2023/09/25 07:17:22;;;;;;;5.57;2.00;;;13.20;99.90;;;;;;5033935;28;20041;-75
2023/09/25 07:19:51;;;;;;;3.07;1.50;;;13.20;99.90;;;;;;5021807;28;20044;-76
2023/09/25 07:22:21;;;;;;;5.10;1.30;;;13.30;99.90;;;;;;5013388;28;20033;-75
2023/09/25 07:24:47;;;;;;;5.70;1.30;;;13.40;99.90;;;;;;5017411;28;20037;-75
2023/09/25 07:27:14;;;;;;;2.03;1.67;;;13.40;99.90;;;;;;5032878;28;20041;-76
2023/09/25 07:29:43;;;;;;;6.33;2.20;;;13.50;99.90;;;;;;5033486;28;20017;-75
2023/09/25 07:32:10;;;;;;;3.70;1.67;;;13.50;99.90;;;;;;5033671;28;20030;-76
2023/09/25 07:34:38;;;;;;;3.60;1.60;;;13.50;99.90;;;;;;5016813;28;20034;-77
2023/09/25 07:37:07;;;;;;;7.03;2.00;;;13.50;99.90;;;;;;5016722;28;20028;-76
2023/09/25 07:39:40;;;;;;;5.17;1.60;;;13.60;99.90;;;;;;5020222;28;20034;-75
2023/09/25 07:42:15;;;;;;;2.43;1.13;;;13.70;99.90;;;;;;5033452;28;21233;-75
2023/09/25 07:44:43;;;;;;;7.53;2.87;;;13.60;99.90;;;;;;5014393;28;20122;-75
2023/09/25 07:47:17;;;;;;;6.47;1.40;;;13.70;99.90;;;;;;5032848;28;20108;-75
2023/09/25 07:49:46;;;;;;;3.67;1.67;;;13.80;99.90;;;;;;5032106;28;20017;-75
2023/09/25 07:52:15;;;;;;;3.87;1.27;;;13.80;99.90;;;;;;5018999;28;20015;-76
2023/09/25 07:54:51;;;;;;;4.57;1.90;;;13.90;99.90;;;;;;5032920;28;20026;-76
2023/09/25 07:57:21;;;;;;;3.17;2.30;;;13.90;99.90;;;;;;5032572;28;20022;-77
2023/09/25 07:59:52;;;;;;;2.73;1.30;;;14.00;99.90;;;;;;5032886;28;20067;-76
2023/09/25 08:02:29;;;;;;;6.23;2.00;;;14.00;99.90;;;;;;5033216;28;20040;-76
2023/09/25 08:05:08;;;;;;;6.82;1.85;;;14.10;99.90;;;;;;5032322;28;20045;-75
2023/09/25 08:07:34;;;;;;;2.80;1.30;;;14.10;99.90;;;;;;5033902;28;20014;-74
2023/09/25 08:10:02;;;;;;;7.73;2.13;;;14.20;99.90;;;;;;5032240;28;20084;-76
2023/09/25 08:12:28;;;;;;;4.60;1.58;;;14.30;99.90;;;;;;5033230;28;20013;-75
2023/09/25 08:14:53;;;;;;;6.20;1.80;;;14.30;99.90;;;;;;5033143;28;20032;-74
2023/09/25 08:17:19;;;;;;;4.35;1.88;;;14.40;99.90;;;;;;5032118;28;20064;-75
2023/09/25 08:19:53;;;;;;;3.92;1.50;;;14.40;99.90;;;;;;5033464;28;20025;-75
2023/09/25 08:22:20;;;;;;;5.40;2.20;;;14.60;99.90;;;;;;5032404;28;20017;-76
2023/09/25 08:24:48;;;;;;;2.83;1.35;;;14.50;99.90;;;;;;5019232;28;20053;-75
2023/09/25 08:27:27;;;;;;;4.32;1.67;;;14.60;99.90;;;;;;5031929;28;20128;-75
2023/09/25 08:29:53;;;;;;;4.15;1.27;;;14.70;99.90;;;;;;5015412;28;20040;-76
2023/09/25 08:32:18;;;;;;;7.20;1.30;;;14.80;99.90;;;;;;5018975;28;20097;-76
2023/09/25 08:34:44;;;;;;;5.15;2.15;;;14.80;99.90;;;;;;5031351;28;20033;-75
2023/09/25 08:37:11;;;;;;;3.80;1.65;;;15.00;99.90;;;;;;5031570;28;20048;-75
2023/09/25 08:39:37;;;;;;;5.30;1.30;;;14.90;99.90;;;;;;5030728;28;20030;-76
2023/09/25 08:42:04;;;;;;;6.47;1.50;;;15.00;99.90;;;;;;5031263;28;21302;-75
2023/09/25 08:44:29;;;;;;;2.97;1.23;;;15.00;99.90;;;;;;5032960;28;20073;-75
2023/09/25 08:46:55;;;;;;;3.22;2.22;;;15.00;99.90;;;;;;5032991;28;20026;-75
2023/09/25 08:49:23;;;;;;;3.75;1.40;;;15.10;99.90;;;;;;5031932;28;20044;-76
2023/09/25 08:51:53;;;;;;;6.47;1.67;;;15.20;99.90;;;;;;5031678;28;20030;-75
2023/09/25 08:54:18;;;;;;;3.38;1.52;;;15.20;99.90;;;;;;5030880;28;20054;-75
2023/09/25 08:56:46;;;;;;;3.97;1.83;;;15.20;99.90;;;;;;5017695;28;20060;-75
2023/09/25 08:59:20;;;;;;;6.07;2.05;;;15.30;99.90;;;;;;5032205;28;20028;-75
2023/09/25 09:01:46;;;;;;;5.38;1.88;;;15.40;99.90;;;;;;5030710;28;20060;-75
2023/09/25 09:04:12;;;;;;;4.85;2.08;;;15.30;99.90;;;;;;5030181;28;20018;-76
2023/09/25 09:06:37;;;;;;;2.40;1.38;;;15.20;99.90;;;;;;5030737;28;20089;-75
2023/09/25 09:09:03;;;;;;;2.35;1.08;;;15.20;99.90;;;;;;5031432;28;20044;-74
2023/09/25 09:11:29;;;;;;;3.88;1.60;;;15.30;99.90;;;;;;5015252;28;20069;-75
2023/09/25 09:13:58;;;;;;;4.38;1.52;;;15.40;99.90;;;;;;5030881;28;20028;-75
2023/09/25 09:16:23;;;;;;;8.05;2.22;;;15.50;99.90;;;;;;5031225;28;20021;-75
2023/09/25 09:19:05;;;;;;;3.22;1.42;;;15.60;99.90;;;;;;5015147;28;20044;-75
2023/09/25 09:21:33;;;;;;;3.03;1.60;;;15.70;99.90;;;;;;5031508;28;20026;-75
2023/09/25 09:23:59;;;;;;;5.13;1.33;;;15.80;99.90;;;;;;5030796;28;20392;-76
2023/09/25 09:26:25;;;;;;;7.88;1.55;;;15.80;99.90;;;;;;5030916;28;20053;-76
2023/09/25 09:28:53;;;;;;;2.58;1.50;;;15.90;99.90;;;;;;5030836;28;20030;-76
2023/09/25 09:31:20;;;;;;;2.22;1.00;;;15.90;99.90;;;;;;5030576;28;20057;-76
2023/09/25 09:33:47;;;;;;;5.32;1.55;;;16.10;99.90;;;;;;5031996;28;20033;-76
2023/09/25 09:36:14;;;;;;;4.43;1.63;;;16.00;99.90;;;;;;5013404;28;20032;-75
2023/09/25 09:38:41;;;;;;;4.18;0.80;;;16.10;99.90;;;;;;5031905;28;20289;-76
2023/09/25 09:41:08;;;;;;;2.25;1.08;;;16.10;99.90;;;;;;5014669;28;20026;-76
2023/09/25 09:43:34;;;;;;;2.35;0.95;;;16.20;99.90;;;;;;5014734;28;20036;-75
2023/09/25 09:46:01;;;;;;;6.78;1.40;;;16.20;99.90;;;;;;5032218;28;20036;-75
2023/09/25 09:48:30;;;;;;;2.58;1.08;;;16.20;99.90;;;;;;5014289;28;20014;-76
2023/09/25 09:50:59;;;;;;;3.00;1.17;;;16.30;99.90;;;;;;5031527;28;20017;-76
2023/09/25 09:53:28;;;;;;;2.25;1.30;;;16.40;99.90;;;;;;5031159;28;20050;-75
2023/09/25 09:55:55;;;;;;;2.63;1.48;;;16.40;99.90;;;;;;5017329;28;20049;-75
2023/09/25 09:58:21;;;;;;;3.33;1.45;;;16.50;99.90;;;;;;5010681;28;20038;-75
2023/09/25 10:00:47;;;;;;;3.30;1.23;;;16.50;99.90;;;;;;5010921;28;20097;-77
2023/09/25 10:03:14;;;;;;;4.47;1.52;;;16.50;99.90;;;;;;5014950;28;20056;-75
2023/09/25 10:05:48;;;;;;;5.93;1.58;;;16.50;99.90;;;;;;5031856;28;20098;-76
2023/09/25 10:08:16;;;;;;;2.25;0.88;;;16.50;99.90;;;;;;5032255;28;20014;-75
2023/09/25 10:10:46;;;;;;;2.17;0.85;;;16.60;99.90;;;;;;5018710;28;20101;-75
2023/09/25 10:13:22;;;;;;;3.30;0.98;;;16.60;99.90;;;;;;5032005;28;20014;-76
2023/09/25 10:16:01;;;;;;;3.65;1.48;;;16.70;99.90;;;;;;5032088;28;20034;-75
2023/09/25 10:18:28;;;;;;;2.90;1.05;;;16.80;99.90;;;;;;5031079;28;20029;-75
2023/09/25 10:21:09;;;;;;;3.35;1.23;;;16.90;99.90;;;;;;5032111;28;20022;-75
2023/09/25 10:23:35;;;;;;;2.90;1.10;;;17.00;99.90;;;;;;5032076;28;20072;-75
2023/09/25 10:26:02;;;;;;;3.97;1.20;;;17.00;99.90;;;;;;5018421;28;20030;-76
2023/09/25 10:28:33;;;;;;;3.80;1.48;;;17.00;99.90;;;;;;5029686;28;20165;-77
2023/09/25 10:31:00;;;;;;;3.78;1.42;;;17.00;99.90;;;;;;5030225;28;20072;-78
2023/09/25 10:33:30;;;;;;;3.97;1.20;;;17.20;99.90;;;;;;5014762;28;20034;-76
2023/09/25 10:36:04;;;;;;;1.90;1.00;;;17.20;99.90;;;;;;5013918;28;20037;-77
2023/09/25 10:38:34;;;;;;;1.92;1.00;;;17.30;99.90;;;;;;5009123;28;20061;-79
2023/09/25 10:41:02;;;;;;;2.30;0.90;;;17.40;99.90;;;;;;5009454;28;20029;-81
2023/09/25 10:43:28;;;;;;;2.80;0.80;;;17.40;99.90;;;;;;5014616;28;20470;-84
2023/09/25 10:45:54;;;;;;;2.63;1.00;;;17.50;99.90;;;;;;5011762;28;20022;-80
2023/09/25 10:48:24;;;;;;;4.50;1.15;;;17.60;99.90;;;;;;5014501;28;20614;-84
2023/09/25 10:50:49;;;;;;;2.63;1.08;;;17.70;99.90;;;;;;4993650;28;20092;-85
2023/09/25 10:53:16;;;;;;;4.25;1.30;;;17.70;99.90;;;;;;5006209;28;20406;-83
2023/09/25 10:55:42;;;;;;;3.65;1.17;;;17.70;99.90;;;;;;5008039;28;20026;-85
2023/09/25 10:58:12;;;;;;;2.45;1.20;;;17.90;99.90;;;;;;4993780;28;20022;-85
2023/09/25 11:00:38;;;;;;;2.67;0.88;;;17.90;99.90;;;;;;5005775;28;20018;-86
2023/09/25 11:03:05;;;;;;;2.17;0.90;;;18.00;99.90;;;;;;5008513;28;20026;-85
2023/09/25 11:05:33;;;;;;;2.35;0.93;;;18.10;99.90;;;;;;4997101;28;20034;-84
2023/09/25 11:08:00;;;;;;;2.85;1.30;;;18.20;99.90;;;;;;5010182;28;20021;-87
2023/09/25 11:10:29;;;;;;;1.35;0.93;;;18.30;99.90;;;;;;5010578;28;20036;-84
2023/09/25 11:12:57;;;;;;;3.45;1.20;;;18.40;99.90;;;;;;5010960;28;20033;-84
2023/09/25 11:15:25;;;;;;;1.92;1.00;;;18.50;99.90;;;;;;5010446;28;20497;-84
2023/09/25 11:17:51;;;;;;;5.10;1.20;;;18.60;99.90;;;;;;5011284;28;20450;-88
2023/09/25 11:20:22;;;;;;;5.00;1.33;;;18.60;99.90;;;;;;5012556;28;20038;-85
2023/09/25 11:22:49;;;;;;;4.03;0.98;;;18.70;99.90;;;;;;4996016;28;20022;-86
2023/09/25 11:25:18;;;;;;;2.95;1.10;;;18.80;99.90;;;;;;5011718;28;20113;-84
2023/09/25 11:27:55;;;;;;;2.20;1.13;;;18.80;99.90;;;;;;5011314;28;20069;-87
2023/09/25 11:30:27;;;;;;;3.50;1.05;;;18.90;99.90;;;;;;5011204;28;20374;-89
2023/09/25 11:32:55;;;;;;;3.28;1.10;;;18.90;99.90;;;;;;4995114;28;20033;-85
2023/09/25 11:35:25;;;;;;;1.83;0.90;;;19.00;99.90;;;;;;5010674;28;20065;-86
2023/09/25 11:38:02;;;;;;;3.08;1.10;;;19.10;99.90;;;;;;4998232;28;20073;-85
2023/09/25 11:40:29;;;;;;;2.58;1.10;;;19.10;99.90;;;;;;5011052;28;20025;-87
2023/09/25 11:42:57;;;;;;;3.88;1.42;;;19.20;99.90;;;;;;5011179;28;20566;-88
2023/09/25 11:45:23;;;;;;;3.05;1.05;;;19.20;99.90;;;;;;4995903;28;20022;-91
2023/09/25 11:47:49;;;;;;;3.22;1.20;;;19.20;99.90;;;;;;5009810;28;20332;-91
2023/09/25 11:50:16;;;;;;;1.88;1.20;;;19.20;99.90;;;;;;4989987;28;20120;-84
2023/09/25 11:52:43;;;;;;;3.00;1.30;;;19.30;99.90;;;;;;5008393;28;20785;-86
2023/09/25 11:55:15;;;;;;;4.05;1.25;;;19.40;99.90;;;;;;4993388;28;20026;-85
2023/09/25 11:57:42;;;;;;;1.77;1.10;;;19.50;99.90;;;;;;5009235;28;20128;-93
2023/09/25 12:00:10;;;;;;;2.35;1.15;;;19.50;99.90;;;;;;5008977;28;20084;-93
2023/09/25 12:02:36;;;;;;;2.95;1.27;;;19.60;99.90;;;;;;5007888;28;20045;-89
2023/09/25 12:05:03;;;;;;;4.88;1.58;;;19.60;99.90;;;;;;4995916;28;20026;-95
2023/09/25 12:07:32;;;;;;;2.33;1.10;;;19.60;99.90;;;;;;4991820;28;20033;-90
2023/09/25 12:10:00;;;;;;;4.13;1.38;;;19.60;99.90;;;;;;5009296;28;20450;-91
2023/09/25 12:12:26;;;;;;;3.47;1.23;;;19.60;99.90;;;;;;4994961;28;20054;-87
2023/09/25 12:14:56;;;;;;;2.25;1.20;;;19.70;99.90;;;;;;5008629;28;20024;-87
2023/09/25 12:17:23;;;;;;;3.00;1.05;;;19.70;99.90;;;;;;5008720;28;20125;-88
2023/09/25 12:19:48;;;;;;;4.38;1.20;;;19.70;99.90;;;;;;4994817;28;20045;-86
2023/09/25 12:22:14;;;;;;;5.47;1.65;;;19.80;99.90;;;;;;4996076;28;20069;-91
2023/09/25 12:24:40;;;;;;;1.48;0.90;;;19.80;99.90;;;;;;5008609;28;20029;-88
2023/09/25 12:27:05;;;;;;;2.60;1.48;;;19.80;99.90;;;;;;4995146;28;20034;-92
2023/09/25 12:29:31;;;;;;;3.45;1.27;;;19.90;99.90;;;;;;4992522;28;20038;-88
2023/09/25 12:31:56;;;;;;;3.92;1.15;;;20.00;99.90;;;;;;5008023;28;20133;-93
2023/09/25 12:34:22;;;;;;;5.97;1.52;;;20.00;99.90;;;;;;5008797;28;20026;-90
2023/09/25 12:36:48;;;;;;;2.53;1.02;;;20.10;99.90;;;;;;5008724;28;20030;-93
2023/09/25 12:39:16;;;;;;;3.67;1.83;;;20.20;99.90;;;;;;4991874;28;20034;-86
2023/09/25 12:41:42;;;;;;;4.80;1.42;;;20.30;99.90;;;;;;5008495;28;20034;-91
2023/09/25 12:44:08;;;;;;;3.17;0.93;;;20.40;99.90;;;;;;5007798;28;20340;-90
2023/09/25 12:46:34;;;;;;;1.88;1.10;;;20.50;99.90;;;;;;5009194;28;20052;-88
2023/09/25 12:49:00;;;;;;;2.85;1.48;;;20.60;99.90;;;;;;5008597;28;20442;-91
2023/09/25 12:51:28;;;;;;;2.60;1.35;;;20.70;99.80;;;;;;5008204;28;20053;-89
2023/09/25 12:53:55;;;;;;;2.60;0.93;;;20.80;99.90;;;;;;5008704;28;20029;-89
2023/09/25 12:56:21;;;;;;;5.35;1.48;;;20.80;99.90;;;;;;5008636;28;20060;-90
2023/09/25 12:58:47;;;;;;;4.05;1.90;;;20.90;99.90;;;;;;4995488;28;20060;-92